sensor_id;sensor_type;location;lat;lon;timestamp;P1;durP1;ratioP1;P2;durP2;ratioP2
10313;SDS011;5202;49.138;10.090;2023-06-24T00:01:35;5.47;;;3.90;;
10313;SDS011;5202;49.138;10.090;2023-06-24T00:04:31;5.70;;;4.15;;
10313;SDS011;5202;49.138;10.090;2023-06-24T00:06:59;8.85;;;3.95;;
10313;SDS011;5202;49.138;10.090;2023-06-24T00:09:27;6.00;;;4.13;;
10313;SDS011;5202;49.138;10.090;2023-06-24T00:11:56;7.85;;;4.13;;
10313;SDS011;5202;49.138;10.090;2023-06-24T00:14:26;4.35;;;3.60;;
10313;SDS011;5202;49.138;10.090;2023-06-24T00:16:54;4.13;;;3.30;;
10313;SDS011;5202;49.138;10.090;2023-06-24T00:19:24;4.20;;;3.70;;
10313;SDS011;5202;49.138;10.090;2023-06-24T00:21:55;4.60;;;3.88;;
10313;SDS011;5202;49.138;10.090;2023-06-24T00:24:25;4.60;;;3.30;;
10313;SDS011;5202;49.138;10.090;2023-06-24T00:26:53;5.20;;;3.65;;
10313;SDS011;5202;49.138;10.090;2023-06-24T00:29:22;5.45;;;3.50;;
10313;SDS011;5202;49.138;10.090;2023-06-24T00:31:50;3.75;;;3.40;;
10313;SDS011;5202;49.138;10.090;2023-06-24T00:34:18;5.10;;;3.60;;
10313;SDS011;5202;49.138;10.090;2023-06-24T00:36:47;4.05;;;3.20;;
10313;SDS011;5202;49.138;10.090;2023-06-24T00:39:17;4.75;;;3.53;;
10313;SDS011;5202;49.138;10.090;2023-06-24T00:41:45;4.47;;;3.20;;
10313;SDS011;5202;49.138;10.090;2023-06-24T00:44:13;4.90;;;4.13;;
10313;SDS011;5202;49.138;10.090;2023-06-24T00:46:42;5.53;;;3.45;;
10313;SDS011;5202;49.138;10.090;2023-06-24T00:49:10;6.70;;;3.53;;
10313;SDS011;5202;49.138;10.090;2023-06-24T00:51:40;5.22;;;4.15;;
10313;SDS011;5202;49.138;10.090;2023-06-24T00:54:14;3.97;;;3.22;;
10313;SDS011;5202;49.138;10.090;2023-06-24T00:56:44;4.90;;;3.78;;
10313;SDS011;5202;49.138;10.090;2023-06-24T00:59:15;4.43;;;3.45;;
10313;SDS011;5202;49.138;10.090;2023-06-24T01:01:44;4.82;;;3.88;;
10313;SDS011;5202;49.138;10.090;2023-06-24T01:04:13;5.68;;;3.92;;
10313;SDS011;5202;49.138;10.090;2023-06-24T01:06:42;4.93;;;3.97;;
10313;SDS011;5202;49.138;10.090;2023-06-24T01:09:11;5.68;;;3.42;;
10313;SDS011;5202;49.138;10.090;2023-06-24T01:11:41;6.30;;;4.05;;
10313;SDS011;5202;49.138;10.090;2023-06-24T01:14:10;6.97;;;3.30;;
10313;SDS011;5202;49.138;10.090;2023-06-24T01:16:40;6.18;;;3.88;;
10313;SDS011;5202;49.138;10.090;2023-06-24T01:19:24;4.00;;;3.53;;
10313;SDS011;5202;49.138;10.090;2023-06-24T01:22:52;8.00;;;3.83;;
10313;SDS011;5202;49.138;10.090;2023-06-24T01:25:57;3.65;;;3.03;;
10313;SDS011;5202;49.138;10.090;2023-06-24T01:28:53;4.97;;;3.40;;
10313;SDS011;5202;49.138;10.090;2023-06-24T01:31:50;9.52;;;4.40;;
10313;SDS011;5202;49.138;10.090;2023-06-24T01:34:22;7.13;;;3.35;;
10313;SDS011;5202;49.138;10.090;2023-06-24T01:36:57;7.60;;;3.80;;
10313;SDS011;5202;49.138;10.090;2023-06-24T01:39:46;3.95;;;3.40;;
10313;SDS011;5202;49.138;10.090;2023-06-24T01:42:19;5.45;;;3.08;;
10313;SDS011;5202;49.138;10.090;2023-06-24T01:44:49;3.75;;;3.28;;
10313;SDS011;5202;49.138;10.090;2023-06-24T01:47:21;4.25;;;3.60;;
10313;SDS011;5202;49.138;10.090;2023-06-24T01:49:55;5.20;;;3.45;;
10313;SDS011;5202;49.138;10.090;2023-06-24T01:52:31;5.22;;;3.22;;
10313;SDS011;5202;49.138;10.090;2023-06-24T01:55:02;6.53;;;3.45;;
10313;SDS011;5202;49.138;10.090;2023-06-24T01:57:34;4.53;;;3.50;;
10313;SDS011;5202;49.138;10.090;2023-06-24T02:00:06;6.25;;;3.95;;
10313;SDS011;5202;49.138;10.090;2023-06-24T02:02:50;5.97;;;3.78;;
10313;SDS011;5202;49.138;10.090;2023-06-24T02:05:21;5.30;;;3.78;;
10313;SDS011;5202;49.138;10.090;2023-06-24T02:07:50;3.78;;;3.00;;
10313;SDS011;5202;49.138;10.090;2023-06-24T02:10:21;4.50;;;3.25;;
10313;SDS011;5202;49.138;10.090;2023-06-24T02:12:51;7.70;;;3.80;;
10313;SDS011;5202;49.138;10.090;2023-06-24T02:15:22;4.57;;;3.78;;
10313;SDS011;5202;49.138;10.090;2023-06-24T02:17:52;4.85;;;3.75;;
10313;SDS011;5202;49.138;10.090;2023-06-24T02:20:23;6.18;;;3.40;;
10313;SDS011;5202;49.138;10.090;2023-06-24T02:22:54;7.22;;;3.50;;
10313;SDS011;5202;49.138;10.090;2023-06-24T02:25:26;6.85;;;3.95;;
10313;SDS011;5202;49.138;10.090;2023-06-24T02:27:56;6.23;;;3.73;;
10313;SDS011;5202;49.138;10.090;2023-06-24T02:30:25;4.23;;;3.23;;
10313;SDS011;5202;49.138;10.090;2023-06-24T02:32:55;3.80;;;3.40;;
10313;SDS011;5202;49.138;10.090;2023-06-24T02:35:24;3.57;;;3.20;;
10313;SDS011;5202;49.138;10.090;2023-06-24T02:37:53;3.93;;;3.40;;
10313;SDS011;5202;49.138;10.090;2023-06-24T02:40:22;4.53;;;3.70;;
10313;SDS011;5202;49.138;10.090;2023-06-24T02:42:50;8.03;;;3.97;;
10313;SDS011;5202;49.138;10.090;2023-06-24T02:45:18;3.90;;;3.50;;
10313;SDS011;5202;49.138;10.090;2023-06-24T02:47:47;6.30;;;3.97;;
10313;SDS011;5202;49.138;10.090;2023-06-24T02:50:19;6.17;;;4.07;;
10313;SDS011;5202;49.138;10.090;2023-06-24T02:52:49;4.10;;;3.70;;
10313;SDS011;5202;49.138;10.090;2023-06-24T02:55:22;4.00;;;3.43;;
10313;SDS011;5202;49.138;10.090;2023-06-24T02:57:57;4.23;;;3.63;;
10313;SDS011;5202;49.138;10.090;2023-06-24T03:00:44;4.40;;;4.00;;
10313;SDS011;5202;49.138;10.090;2023-06-24T03:03:33;5.50;;;3.57;;
10313;SDS011;5202;49.138;10.090;2023-06-24T03:06:08;4.27;;;3.30;;
10313;SDS011;5202;49.138;10.090;2023-06-24T03:08:39;4.60;;;3.40;;
10313;SDS011;5202;49.138;10.090;2023-06-24T03:11:11;4.13;;;3.53;;
10313;SDS011;5202;49.138;10.090;2023-06-24T03:13:40;4.00;;;3.60;;
10313;SDS011;5202;49.138;10.090;2023-06-24T03:16:21;4.33;;;3.40;;
10313;SDS011;5202;49.138;10.090;2023-06-24T03:19:12;7.80;;;3.20;;
10313;SDS011;5202;49.138;10.090;2023-06-24T03:21:42;3.37;;;3.07;;
10313;SDS011;5202;49.138;10.090;2023-06-24T03:24:14;4.33;;;3.63;;
10313;SDS011;5202;49.138;10.090;2023-06-24T03:26:46;5.13;;;3.47;;
10313;SDS011;5202;49.138;10.090;2023-06-24T03:29:18;3.77;;;3.43;;
10313;SDS011;5202;49.138;10.090;2023-06-24T03:32:07;3.97;;;3.43;;
10313;SDS011;5202;49.138;10.090;2023-06-24T03:34:36;5.17;;;3.90;;
10313;SDS011;5202;49.138;10.090;2023-06-24T03:37:05;4.70;;;3.80;;
10313;SDS011;5202;49.138;10.090;2023-06-24T03:39:37;7.07;;;4.03;;
10313;SDS011;5202;49.138;10.090;2023-06-24T03:42:06;5.77;;;4.13;;
10313;SDS011;5202;49.138;10.090;2023-06-24T03:44:34;5.27;;;4.20;;
10313;SDS011;5202;49.138;10.090;2023-06-24T03:47:03;4.23;;;3.80;;
10313;SDS011;5202;49.138;10.090;2023-06-24T03:49:31;5.60;;;4.00;;
10313;SDS011;5202;49.138;10.090;2023-06-24T03:52:00;4.77;;;4.00;;
10313;SDS011;5202;49.138;10.090;2023-06-24T03:54:31;5.43;;;4.37;;
10313;SDS011;5202;49.138;10.090;2023-06-24T03:56:59;5.13;;;4.07;;
10313;SDS011;5202;49.138;10.090;2023-06-24T03:59:28;5.00;;;4.50;;
10313;SDS011;5202;49.138;10.090;2023-06-24T04:01:56;5.40;;;3.80;;
10313;SDS011;5202;49.138;10.090;2023-06-24T04:04:25;5.57;;;4.33;;
10313;SDS011;5202;49.138;10.090;2023-06-24T04:06:55;4.43;;;4.03;;
10313;SDS011;5202;49.138;10.090;2023-06-24T04:09:23;4.93;;;4.23;;
10313;SDS011;5202;49.138;10.090;2023-06-24T04:11:53;4.17;;;3.50;;
10313;SDS011;5202;49.138;10.090;2023-06-24T04:14:22;4.43;;;3.80;;
10313;SDS011;5202;49.138;10.090;2023-06-24T04:16:50;8.10;;;4.33;;
10313;SDS011;5202;49.138;10.090;2023-06-24T04:19:19;6.70;;;4.47;;
10313;SDS011;5202;49.138;10.090;2023-06-24T04:21:47;4.20;;;3.80;;
10313;SDS011;5202;49.138;10.090;2023-06-24T04:24:17;4.73;;;4.00;;
10313;SDS011;5202;49.138;10.090;2023-06-24T04:26:45;5.07;;;3.23;;
10313;SDS011;5202;49.138;10.090;2023-06-24T04:29:15;5.03;;;4.10;;
10313;SDS011;5202;49.138;10.090;2023-06-24T04:31:43;9.07;;;4.60;;
10313;SDS011;5202;49.138;10.090;2023-06-24T04:34:12;7.77;;;4.20;;
10313;SDS011;5202;49.138;10.090;2023-06-24T04:36:40;7.40;;;4.27;;
10313;SDS011;5202;49.138;10.090;2023-06-24T04:39:08;5.40;;;4.23;;
10313;SDS011;5202;49.138;10.090;2023-06-24T04:41:37;4.97;;;4.17;;
10313;SDS011;5202;49.138;10.090;2023-06-24T04:44:05;4.80;;;4.30;;
10313;SDS011;5202;49.138;10.090;2023-06-24T04:46:35;6.70;;;5.03;;
10313;SDS011;5202;49.138;10.090;2023-06-24T04:49:03;5.93;;;4.70;;
10313;SDS011;5202;49.138;10.090;2023-06-24T04:51:32;6.23;;;5.20;;
10313;SDS011;5202;49.138;10.090;2023-06-24T04:54:00;9.47;;;4.63;;
10313;SDS011;5202;49.138;10.090;2023-06-24T04:56:29;8.53;;;4.87;;
10313;SDS011;5202;49.138;10.090;2023-06-24T04:58:58;8.47;;;5.63;;
10313;SDS011;5202;49.138;10.090;2023-06-24T05:01:26;7.37;;;5.10;;
10313;SDS011;5202;49.138;10.090;2023-06-24T05:03:56;6.13;;;5.53;;
10313;SDS011;5202;49.138;10.090;2023-06-24T05:06:24;8.83;;;5.53;;
10313;SDS011;5202;49.138;10.090;2023-06-24T05:08:53;11.73;;;5.90;;
10313;SDS011;5202;49.138;10.090;2023-06-24T05:11:21;7.17;;;5.33;;
10313;SDS011;5202;49.138;10.090;2023-06-24T05:13:50;7.60;;;5.17;;
10313;SDS011;5202;49.138;10.090;2023-06-24T05:16:18;5.70;;;4.87;;
10313;SDS011;5202;49.138;10.090;2023-06-24T05:18:46;8.10;;;5.47;;
10313;SDS011;5202;49.138;10.090;2023-06-24T05:21:16;9.15;;;5.78;;
10313;SDS011;5202;49.138;10.090;2023-06-24T05:23:44;7.38;;;4.70;;
10313;SDS011;5202;49.138;10.090;2023-06-24T05:26:13;6.47;;;5.03;;
10313;SDS011;5202;49.138;10.090;2023-06-24T05:28:41;6.70;;;5.15;;
10313;SDS011;5202;49.138;10.090;2023-06-24T05:31:10;7.38;;;4.97;;
10313;SDS011;5202;49.138;10.090;2023-06-24T05:33:38;8.10;;;5.63;;
10313;SDS011;5202;49.138;10.090;2023-06-24T05:36:06;6.88;;;5.22;;
10313;SDS011;5202;49.138;10.090;2023-06-24T05:38:36;6.40;;;5.30;;
10313;SDS011;5202;49.138;10.090;2023-06-24T05:41:04;6.55;;;5.22;;
10313;SDS011;5202;49.138;10.090;2023-06-24T05:43:33;6.10;;;5.07;;
10313;SDS011;5202;49.138;10.090;2023-06-24T05:46:01;6.30;;;4.70;;
10313;SDS011;5202;49.138;10.090;2023-06-24T05:48:30;5.30;;;4.75;;
10313;SDS011;5202;49.138;10.090;2023-06-24T05:50:59;6.50;;;4.88;;
10313;SDS011;5202;49.138;10.090;2023-06-24T05:53:27;6.97;;;5.30;;
10313;SDS011;5202;49.138;10.090;2023-06-24T05:55:57;5.63;;;4.70;;
10313;SDS011;5202;49.138;10.090;2023-06-24T05:58:25;7.13;;;4.65;;
10313;SDS011;5202;49.138;10.090;2023-06-24T06:00:53;6.55;;;4.38;;
10313;SDS011;5202;49.138;10.090;2023-06-24T06:03:22;5.13;;;4.63;;
10313;SDS011;5202;49.138;10.090;2023-06-24T06:05:50;5.43;;;4.40;;
10313;SDS011;5202;49.138;10.090;2023-06-24T06:08:18;4.70;;;4.18;;
10313;SDS011;5202;49.138;10.090;2023-06-24T06:10:47;6.07;;;4.53;;
10313;SDS011;5202;49.138;10.090;2023-06-24T06:13:19;6.10;;;4.07;;
10313;SDS011;5202;49.138;10.090;2023-06-24T06:15:48;5.85;;;4.30;;
10313;SDS011;5202;49.138;10.090;2023-06-24T06:18:16;5.13;;;4.63;;
10313;SDS011;5202;49.138;10.090;2023-06-24T06:20:44;5.90;;;4.68;;
10313;SDS011;5202;49.138;10.090;2023-06-24T06:23:12;5.25;;;4.25;;
10313;SDS011;5202;49.138;10.090;2023-06-24T06:25:42;5.20;;;4.50;;
10313;SDS011;5202;49.138;10.090;2023-06-24T06:28:14;4.82;;;4.22;;
10313;SDS011;5202;49.138;10.090;2023-06-24T06:30:44;5.80;;;4.10;;
10313;SDS011;5202;49.138;10.090;2023-06-24T06:33:12;4.80;;;3.88;;
10313;SDS011;5202;49.138;10.090;2023-06-24T06:35:40;4.63;;;3.72;;
10313;SDS011;5202;49.138;10.090;2023-06-24T06:38:09;5.75;;;3.92;;
10313;SDS011;5202;49.138;10.090;2023-06-24T06:40:38;6.00;;;4.50;;
10313;SDS011;5202;49.138;10.090;2023-06-24T06:43:06;4.97;;;4.30;;
10313;SDS011;5202;49.138;10.090;2023-06-24T06:45:35;4.63;;;3.88;;
10313;SDS011;5202;49.138;10.090;2023-06-24T06:48:05;6.63;;;4.10;;
10313;SDS011;5202;49.138;10.090;2023-06-24T06:50:35;4.20;;;3.80;;
10313;SDS011;5202;49.138;10.090;2023-06-24T06:53:03;5.72;;;3.80;;
10313;SDS011;5202;49.138;10.090;2023-06-24T06:55:31;5.50;;;4.10;;
10313;SDS011;5202;49.138;10.090;2023-06-24T06:58:00;6.50;;;4.00;;
10313;SDS011;5202;49.138;10.090;2023-06-24T07:00:28;6.68;;;4.05;;
10313;SDS011;5202;49.138;10.090;2023-06-24T07:03:02;4.75;;;4.25;;
10313;SDS011;5202;49.138;10.090;2023-06-24T07:05:32;5.43;;;4.25;;
10313;SDS011;5202;49.138;10.090;2023-06-24T07:08:04;4.38;;;3.90;;
10313;SDS011;5202;49.138;10.090;2023-06-24T07:10:33;4.15;;;3.75;;
10313;SDS011;5202;49.138;10.090;2023-06-24T07:13:01;4.20;;;3.67;;
10313;SDS011;5202;49.138;10.090;2023-06-24T07:15:30;5.18;;;3.60;;
10313;SDS011;5202;49.138;10.090;2023-06-24T07:17:59;4.18;;;3.45;;
10313;SDS011;5202;49.138;10.090;2023-06-24T07:20:28;4.03;;;3.30;;
10313;SDS011;5202;49.138;10.090;2023-06-24T07:22:57;3.97;;;3.58;;
10313;SDS011;5202;49.138;10.090;2023-06-24T07:25:25;3.85;;;3.45;;
10313;SDS011;5202;49.138;10.090;2023-06-24T07:27:55;5.53;;;3.70;;
10313;SDS011;5202;49.138;10.090;2023-06-24T07:30:23;4.72;;;3.80;;
10313;SDS011;5202;49.138;10.090;2023-06-24T07:32:51;4.63;;;3.50;;
10313;SDS011;5202;49.138;10.090;2023-06-24T07:35:20;5.43;;;4.00;;
10313;SDS011;5202;49.138;10.090;2023-06-24T07:37:49;5.32;;;3.75;;
10313;SDS011;5202;49.138;10.090;2023-06-24T07:40:18;4.60;;;3.72;;
10313;SDS011;5202;49.138;10.090;2023-06-24T07:42:46;4.20;;;3.10;;
10313;SDS011;5202;49.138;10.090;2023-06-24T07:45:14;3.90;;;3.50;;
10313;SDS011;5202;49.138;10.090;2023-06-24T07:47:43;4.00;;;3.60;;
10313;SDS011;5202;49.138;10.090;2023-06-24T07:50:14;6.00;;;3.70;;
10313;SDS011;5202;49.138;10.090;2023-06-24T07:52:42;5.32;;;3.63;;
10313;SDS011;5202;49.138;10.090;2023-06-24T07:55:12;4.72;;;3.47;;
10313;SDS011;5202;49.138;10.090;2023-06-24T07:57:40;4.72;;;3.38;;
10313;SDS011;5202;49.138;10.090;2023-06-24T08:00:13;6.25;;;3.50;;
10313;SDS011;5202;49.138;10.090;2023-06-24T08:02:43;4.38;;;3.33;;
10313;SDS011;5202;49.138;10.090;2023-06-24T08:05:12;4.10;;;3.38;;
10313;SDS011;5202;49.138;10.090;2023-06-24T08:07:40;4.75;;;3.53;;
10313;SDS011;5202;49.138;10.090;2023-06-24T08:10:09;4.97;;;3.80;;
10313;SDS011;5202;49.138;10.090;2023-06-24T08:12:38;5.53;;;3.00;;
10313;SDS011;5202;49.138;10.090;2023-06-24T08:15:07;4.43;;;3.85;;
10313;SDS011;5202;49.138;10.090;2023-06-24T08:17:36;4.78;;;3.45;;
10313;SDS011;5202;49.138;10.090;2023-06-24T08:20:05;3.65;;;3.30;;
10313;SDS011;5202;49.138;10.090;2023-06-24T08:22:34;4.85;;;4.03;;
10313;SDS011;5202;49.138;10.090;2023-06-24T08:25:03;5.45;;;3.28;;
10313;SDS011;5202;49.138;10.090;2023-06-24T08:27:32;3.17;;;2.78;;
10313;SDS011;5202;49.138;10.090;2023-06-24T08:30:02;3.60;;;3.10;;
10313;SDS011;5202;49.138;10.090;2023-06-24T08:32:31;5.13;;;3.50;;
10313;SDS011;5202;49.138;10.090;2023-06-24T08:35:00;6.50;;;3.80;;
10313;SDS011;5202;49.138;10.090;2023-06-24T08:37:28;5.07;;;3.17;;
10313;SDS011;5202;49.138;10.090;2023-06-24T08:39:56;16.95;;;3.95;;
10313;SDS011;5202;49.138;10.090;2023-06-24T08:42:25;6.65;;;4.40;;
10313;SDS011;5202;49.138;10.090;2023-06-24T08:44:53;6.07;;;3.38;;
10313;SDS011;5202;49.138;10.090;2023-06-24T08:47:23;5.63;;;3.72;;
10313;SDS011;5202;49.138;10.090;2023-06-24T08:49:52;4.60;;;3.55;;
10313;SDS011;5202;49.138;10.090;2023-06-24T08:52:31;4.55;;;3.15;;
10313;SDS011;5202;49.138;10.090;2023-06-24T08:55:04;4.65;;;3.83;;
10313;SDS011;5202;49.138;10.090;2023-06-24T08:57:38;4.45;;;3.75;;
10313;SDS011;5202;49.138;10.090;2023-06-24T09:00:06;4.35;;;3.53;;
10313;SDS011;5202;49.138;10.090;2023-06-24T09:02:39;4.97;;;3.50;;
10313;SDS011;5202;49.138;10.090;2023-06-24T09:05:07;4.60;;;3.15;;
10313;SDS011;5202;49.138;10.090;2023-06-24T09:07:36;5.00;;;3.47;;
10313;SDS011;5202;49.138;10.090;2023-06-24T09:10:05;3.70;;;3.38;;
10313;SDS011;5202;49.138;10.090;2023-06-24T09:12:34;4.57;;;3.20;;
10313;SDS011;5202;49.138;10.090;2023-06-24T09:15:03;4.40;;;2.97;;
10313;SDS011;5202;49.138;10.090;2023-06-24T09:17:33;3.30;;;3.00;;
10313;SDS011;5202;49.138;10.090;2023-06-24T09:20:13;3.83;;;3.10;;
10313;SDS011;5202;49.138;10.090;2023-06-24T09:22:46;4.50;;;3.08;;
10313;SDS011;5202;49.138;10.090;2023-06-24T09:25:16;3.03;;;2.72;;
10313;SDS011;5202;49.138;10.090;2023-06-24T09:27:48;3.80;;;3.17;;
10313;SDS011;5202;49.138;10.090;2023-06-24T09:30:18;4.97;;;3.58;;
10313;SDS011;5202;49.138;10.090;2023-06-24T09:32:51;6.00;;;3.50;;
10313;SDS011;5202;49.138;10.090;2023-06-24T09:35:21;3.90;;;3.50;;
10313;SDS011;5202;49.138;10.090;2023-06-24T09:37:50;3.40;;;2.95;;
10313;SDS011;5202;49.138;10.090;2023-06-24T09:40:20;3.80;;;3.40;;
10313;SDS011;5202;49.138;10.090;2023-06-24T09:42:49;3.55;;;3.03;;
10313;SDS011;5202;49.138;10.090;2023-06-24T09:45:20;4.10;;;3.10;;
10313;SDS011;5202;49.138;10.090;2023-06-24T09:47:53;3.45;;;2.88;;
10313;SDS011;5202;49.138;10.090;2023-06-24T09:50:24;4.75;;;2.83;;
10313;SDS011;5202;49.138;10.090;2023-06-24T09:52:52;9.13;;;3.00;;
10313;SDS011;5202;49.138;10.090;2023-06-24T09:55:23;2.67;;;2.47;;
10313;SDS011;5202;49.138;10.090;2023-06-24T09:57:53;3.10;;;2.70;;
10313;SDS011;5202;49.138;10.090;2023-06-24T10:00:22;3.63;;;2.80;;
10313;SDS011;5202;49.138;10.090;2023-06-24T10:02:54;3.42;;;2.75;;
10313;SDS011;5202;49.138;10.090;2023-06-24T10:05:27;4.40;;;2.85;;
10313;SDS011;5202;49.138;10.090;2023-06-24T10:07:56;3.78;;;3.20;;
10313;SDS011;5202;49.138;10.090;2023-06-24T10:10:24;3.15;;;2.83;;
10313;SDS011;5202;49.138;10.090;2023-06-24T10:12:52;8.68;;;3.38;;
10313;SDS011;5202;49.138;10.090;2023-06-24T10:15:21;2.58;;;2.38;;
10313;SDS011;5202;49.138;10.090;2023-06-24T10:17:50;3.92;;;3.00;;
10313;SDS011;5202;49.138;10.090;2023-06-24T10:20:38;4.32;;;2.80;;
10313;SDS011;5202;49.138;10.090;2023-06-24T10:23:06;3.13;;;2.28;;
10313;SDS011;5202;49.138;10.090;2023-06-24T10:25:35;2.85;;;2.55;;
10313;SDS011;5202;49.138;10.090;2023-06-24T10:28:04;2.67;;;2.47;;
10313;SDS011;5202;49.138;10.090;2023-06-24T10:30:33;2.72;;;2.20;;
10313;SDS011;5202;49.138;10.090;2023-06-24T10:33:04;2.47;;;2.20;;
10313;SDS011;5202;49.138;10.090;2023-06-24T10:35:42;3.15;;;2.55;;
10313;SDS011;5202;49.138;10.090;2023-06-24T10:38:10;2.92;;;2.63;;
10313;SDS011;5202;49.138;10.090;2023-06-24T10:40:39;3.65;;;2.65;;
10313;SDS011;5202;49.138;10.090;2023-06-24T10:43:23;3.30;;;2.53;;
10313;SDS011;5202;49.138;10.090;2023-06-24T10:45:55;3.08;;;2.78;;
10313;SDS011;5202;49.138;10.090;2023-06-24T10:48:28;2.92;;;2.30;;
10313;SDS011;5202;49.138;10.090;2023-06-24T10:50:58;2.92;;;2.60;;
10313;SDS011;5202;49.138;10.090;2023-06-24T10:53:26;2.35;;;2.08;;
10313;SDS011;5202;49.138;10.090;2023-06-24T10:56:04;3.38;;;3.08;;
10313;SDS011;5202;49.138;10.090;2023-06-24T10:58:33;3.58;;;2.38;;
10313;SDS011;5202;49.138;10.090;2023-06-24T11:01:08;2.95;;;2.38;;
10313;SDS011;5202;49.138;10.090;2023-06-24T11:03:39;2.45;;;2.20;;
10313;SDS011;5202;49.138;10.090;2023-06-24T11:06:11;4.78;;;3.10;;
10313;SDS011;5202;49.138;10.090;2023-06-24T11:08:43;4.90;;;2.70;;
10313;SDS011;5202;49.138;10.090;2023-06-24T11:11:19;2.63;;;2.42;;
10313;SDS011;5202;49.138;10.090;2023-06-24T11:13:49;2.75;;;2.55;;
10313;SDS011;5202;49.138;10.090;2023-06-24T11:16:20;3.33;;;2.67;;
10313;SDS011;5202;49.138;10.090;2023-06-24T11:18:49;3.30;;;2.88;;
10313;SDS011;5202;49.138;10.090;2023-06-24T11:21:19;2.45;;;2.25;;
10313;SDS011;5202;49.138;10.090;2023-06-24T11:23:47;4.00;;;2.72;;
10313;SDS011;5202;49.138;10.090;2023-06-24T11:26:15;3.17;;;2.65;;
10313;SDS011;5202;49.138;10.090;2023-06-24T11:28:44;4.35;;;2.58;;
10313;SDS011;5202;49.138;10.090;2023-06-24T11:31:15;2.90;;;2.40;;
10313;SDS011;5202;49.138;10.090;2023-06-24T11:33:47;3.28;;;2.63;;
10313;SDS011;5202;49.138;10.090;2023-06-24T11:36:18;2.85;;;2.65;;
10313;SDS011;5202;49.138;10.090;2023-06-24T11:38:48;2.78;;;2.45;;
10313;SDS011;5202;49.138;10.090;2023-06-24T11:41:16;4.47;;;2.95;;
10313;SDS011;5202;49.138;10.090;2023-06-24T11:43:49;2.58;;;2.38;;
10313;SDS011;5202;49.138;10.090;2023-06-24T11:46:20;4.07;;;2.42;;
10313;SDS011;5202;49.138;10.090;2023-06-24T11:48:49;2.92;;;2.63;;
10313;SDS011;5202;49.138;10.090;2023-06-24T11:51:18;4.80;;;2.75;;
10313;SDS011;5202;49.138;10.090;2023-06-24T11:53:51;3.75;;;3.03;;
10313;SDS011;5202;49.138;10.090;2023-06-24T11:56:19;4.15;;;2.42;;
10313;SDS011;5202;49.138;10.090;2023-06-24T11:59:03;3.03;;;2.42;;
10313;SDS011;5202;49.138;10.090;2023-06-24T12:01:33;3.10;;;2.80;;
10313;SDS011;5202;49.138;10.090;2023-06-24T12:04:09;3.28;;;2.90;;
10313;SDS011;5202;49.138;10.090;2023-06-24T12:06:39;2.67;;;2.47;;
10313;SDS011;5202;49.138;10.090;2023-06-24T12:09:08;2.72;;;2.40;;
10313;SDS011;5202;49.138;10.090;2023-06-24T12:11:37;2.78;;;2.58;;
10313;SDS011;5202;49.138;10.090;2023-06-24T12:14:06;3.25;;;2.90;;
10313;SDS011;5202;49.138;10.090;2023-06-24T12:16:34;4.13;;;2.60;;
10313;SDS011;5202;49.138;10.090;2023-06-24T12:19:03;2.58;;;2.30;;
10313;SDS011;5202;49.138;10.090;2023-06-24T12:21:31;2.83;;;2.40;;
10313;SDS011;5202;49.138;10.090;2023-06-24T12:24:01;2.60;;;2.40;;
10313;SDS011;5202;49.138;10.090;2023-06-24T12:26:30;3.20;;;2.42;;
10313;SDS011;5202;49.138;10.090;2023-06-24T12:28:58;2.55;;;2.35;;
10313;SDS011;5202;49.138;10.090;2023-06-24T12:31:27;3.00;;;2.70;;
10313;SDS011;5202;49.138;10.090;2023-06-24T12:33:55;2.58;;;2.35;;
10313;SDS011;5202;49.138;10.090;2023-06-24T12:36:24;3.17;;;2.20;;
10313;SDS011;5202;49.138;10.090;2023-06-24T12:38:52;2.70;;;2.33;;
10313;SDS011;5202;49.138;10.090;2023-06-24T12:41:22;3.70;;;2.60;;
10313;SDS011;5202;49.138;10.090;2023-06-24T12:43:50;3.25;;;2.60;;
10313;SDS011;5202;49.138;10.090;2023-06-24T12:46:19;3.00;;;2.22;;
10313;SDS011;5202;49.138;10.090;2023-06-24T12:48:47;3.20;;;2.20;;
10313;SDS011;5202;49.138;10.090;2023-06-24T12:51:16;4.47;;;2.60;;
10313;SDS011;5202;49.138;10.090;2023-06-24T12:53:44;4.75;;;2.40;;
10313;SDS011;5202;49.138;10.090;2023-06-24T12:56:12;3.13;;;2.50;;
10313;SDS011;5202;49.138;10.090;2023-06-24T12:58:42;4.15;;;2.80;;
10313;SDS011;5202;49.138;10.090;2023-06-24T13:01:11;2.67;;;2.47;;
10313;SDS011;5202;49.138;10.090;2023-06-24T13:03:41;3.35;;;2.70;;
10313;SDS011;5202;49.138;10.090;2023-06-24T13:06:10;3.55;;;2.13;;
10313;SDS011;5202;49.138;10.090;2023-06-24T13:08:40;2.92;;;2.63;;
10313;SDS011;5202;49.138;10.090;2023-06-24T13:11:10;2.35;;;2.15;;
10313;SDS011;5202;49.138;10.090;2023-06-24T13:13:38;2.50;;;2.30;;
10313;SDS011;5202;49.138;10.090;2023-06-24T13:16:08;3.65;;;2.58;;
10313;SDS011;5202;49.138;10.090;2023-06-24T13:18:37;3.70;;;2.30;;
10313;SDS011;5202;49.138;10.090;2023-06-24T13:21:05;2.22;;;2.03;;
10313;SDS011;5202;49.138;10.090;2023-06-24T13:23:42;5.22;;;2.00;;
10313;SDS011;5202;49.138;10.090;2023-06-24T13:26:10;2.55;;;2.35;;
10313;SDS011;5202;49.138;10.090;2023-06-24T13:28:38;3.50;;;2.58;;
10313;SDS011;5202;49.138;10.090;2023-06-24T13:31:08;3.08;;;2.50;;
10313;SDS011;5202;49.138;10.090;2023-06-24T13:33:36;2.63;;;2.42;;
10313;SDS011;5202;49.138;10.090;2023-06-24T13:36:05;2.83;;;2.53;;
10313;SDS011;5202;49.138;10.090;2023-06-24T13:38:37;3.50;;;2.70;;
10313;SDS011;5202;49.138;10.090;2023-06-24T13:41:05;4.20;;;2.63;;
10313;SDS011;5202;49.138;10.090;2023-06-24T13:43:34;2.30;;;2.10;;
10313;SDS011;5202;49.138;10.090;2023-06-24T13:46:02;3.38;;;2.67;;
10313;SDS011;5202;49.138;10.090;2023-06-24T13:48:32;2.70;;;2.40;;
10313;SDS011;5202;49.138;10.090;2023-06-24T13:51:00;2.90;;;2.60;;
10313;SDS011;5202;49.138;10.090;2023-06-24T13:53:28;3.67;;;2.40;;
10313;SDS011;5202;49.138;10.090;2023-06-24T13:55:57;6.90;;;2.85;;
10313;SDS011;5202;49.138;10.090;2023-06-24T13:58:26;4.75;;;2.53;;
10313;SDS011;5202;49.138;10.090;2023-06-24T14:00:54;3.85;;;2.40;;
10313;SDS011;5202;49.138;10.090;2023-06-24T14:03:23;2.38;;;2.13;;
10313;SDS011;5202;49.138;10.090;2023-06-24T14:05:53;4.07;;;2.40;;
10313;SDS011;5202;49.138;10.090;2023-06-24T14:08:23;2.83;;;2.33;;
10313;SDS011;5202;49.138;10.090;2023-06-24T14:10:51;3.75;;;2.25;;
10313;SDS011;5202;49.138;10.090;2023-06-24T14:13:20;4.95;;;2.30;;
10313;SDS011;5202;49.138;10.090;2023-06-24T14:15:48;2.35;;;2.15;;
10313;SDS011;5202;49.138;10.090;2023-06-24T14:18:17;2.95;;;2.30;;
10313;SDS011;5202;49.138;10.090;2023-06-24T14:20:45;2.80;;;2.47;;
10313;SDS011;5202;49.138;10.090;2023-06-24T14:23:15;2.50;;;2.30;;
10313;SDS011;5202;49.138;10.090;2023-06-24T14:25:43;2.50;;;2.20;;
10313;SDS011;5202;49.138;10.090;2023-06-24T14:28:11;3.45;;;2.30;;
10313;SDS011;5202;49.138;10.090;2023-06-24T14:30:40;2.88;;;2.58;;
10313;SDS011;5202;49.138;10.090;2023-06-24T14:33:09;3.15;;;2.25;;
10313;SDS011;5202;49.138;10.090;2023-06-24T14:35:37;2.30;;;2.10;;
10313;SDS011;5202;49.138;10.090;2023-06-24T14:38:06;3.58;;;2.40;;
10313;SDS011;5202;49.138;10.090;2023-06-24T14:40:36;3.40;;;2.70;;
10313;SDS011;5202;49.138;10.090;2023-06-24T14:43:05;2.60;;;2.25;;
10313;SDS011;5202;49.138;10.090;2023-06-24T14:45:34;2.35;;;2.15;;
10313;SDS011;5202;49.138;10.090;2023-06-24T14:48:02;2.25;;;2.05;;
10313;SDS011;5202;49.138;10.090;2023-06-24T14:50:30;2.97;;;2.25;;
10313;SDS011;5202;49.138;10.090;2023-06-24T14:52:59;2.38;;;2.17;;
10313;SDS011;5202;49.138;10.090;2023-06-24T14:55:28;2.22;;;2.03;;
10313;SDS011;5202;49.138;10.090;2023-06-24T14:57:58;3.60;;;2.33;;
10313;SDS011;5202;49.138;10.090;2023-06-24T15:00:27;1.92;;;1.70;;
10313;SDS011;5202;49.138;10.090;2023-06-24T15:02:57;2.60;;;2.30;;
10313;SDS011;5202;49.138;10.090;2023-06-24T15:05:25;2.92;;;2.50;;
10313;SDS011;5202;49.138;10.090;2023-06-24T15:07:53;2.17;;;1.98;;